createdAt,value
2022-11-29T00:01:40.575Z,-0.64
2022-11-29T00:04:09.400Z,-0.66
2022-11-29T00:06:37.501Z,-0.66
2022-11-29T00:09:11.929Z,-0.65
2022-11-29T00:12:00.670Z,-0.63
2022-11-29T00:14:29.768Z,-0.61
2022-11-29T00:17:02.589Z,-0.58
2022-11-29T00:19:33.197Z,-0.55
2022-11-29T00:22:01.898Z,-0.52
2022-11-29T00:24:32.672Z,-0.50
2022-11-29T00:27:01.452Z,-0.49
2022-11-29T00:29:30.495Z,-0.50
2022-11-29T00:31:58.766Z,-0.52
2022-11-29T00:34:26.738Z,-0.55
2022-11-29T00:36:55.120Z,-0.59
2022-11-29T00:39:23.569Z,-0.64
2022-11-29T00:41:51.464Z,-0.69
2022-11-29T00:44:20.588Z,-0.75
2022-11-29T00:46:49.456Z,-0.80
2022-11-29T00:49:17.832Z,-0.85
2022-11-29T00:51:47.139Z,-0.90
2022-11-29T00:54:15.645Z,-0.96
2022-11-29T00:56:43.869Z,-1.00
2022-11-29T00:59:11.850Z,-1.06
2022-11-29T01:01:40.055Z,-1.09
2022-11-29T01:04:08.189Z,-1.11
2022-11-29T01:06:36.178Z,-1.11
2022-11-29T01:09:05.114Z,-1.12
2022-11-29T01:11:33.604Z,-1.13
2022-11-29T01:14:03.380Z,-1.11
2022-11-29T01:16:32.786Z,-1.09
2022-11-29T01:19:01.146Z,-1.05
2022-11-29T01:21:29.185Z,-1.04
2022-11-29T01:23:57.244Z,-1.06
2022-11-29T01:26:28.480Z,-1.07
2022-11-29T01:28:58.922Z,-1.05
2022-11-29T01:31:32.976Z,-1.00
2022-11-29T01:34:04.271Z,-0.97
2022-11-29T01:36:33.129Z,-0.96
2022-11-29T01:39:03.652Z,-0.97
2022-11-29T01:41:33.393Z,-1.03
2022-11-29T01:44:13.583Z,-1.08
2022-11-29T01:46:44.184Z,-1.11
2022-11-29T01:49:21.263Z,-1.16
2022-11-29T01:51:55.118Z,-1.20
2022-11-29T01:54:23.193Z,-1.26
2022-11-29T01:56:52.911Z,-1.32
2022-11-29T01:59:25.944Z,-1.37
2022-11-29T02:01:56.675Z,-1.41
2022-11-29T02:04:24.823Z,-1.46
2022-11-29T02:06:52.985Z,-1.47
2022-11-29T02:09:23.202Z,-1.46
2022-11-29T02:12:09.708Z,-1.45
2022-11-29T02:14:49.879Z,-1.44
2022-11-29T02:17:20.748Z,-1.42
2022-11-29T02:20:17.081Z,-1.40
2022-11-29T02:22:51.332Z,-1.39
2022-11-29T02:25:35.912Z,-1.36
2022-11-29T02:28:06.923Z,-1.33
2022-11-29T02:31:02.522Z,-1.31
2022-11-29T02:34:03.074Z,-1.31
2022-11-29T02:36:47.683Z,-1.32
2022-11-29T02:39:40.044Z,-1.33
2022-11-29T02:42:28.639Z,-1.35
2022-11-29T02:45:08.942Z,-1.37
2022-11-29T02:47:44.323Z,-1.41
2022-11-29T02:50:46.137Z,-1.46
2022-11-29T02:53:34.082Z,-1.54
2022-11-29T02:56:15.739Z,-1.63
2022-11-29T02:59:17.901Z,-1.72
2022-11-29T03:02:05.123Z,-1.81
2022-11-29T03:04:50.885Z,-1.88
2022-11-29T03:07:24.934Z,-1.94
2022-11-29T03:10:05.403Z,-2.01
2022-11-29T03:12:47.634Z,-2.06
2022-11-29T03:15:37.669Z,-2.11
2022-11-29T03:18:27.714Z,-2.17
2022-11-29T03:21:18.072Z,-2.22
2022-11-29T03:23:54.219Z,-2.24
2022-11-29T03:27:06.934Z,-2.21
2022-11-29T03:29:51.135Z,-2.16
2022-11-29T03:32:29.050Z,-2.14
2022-11-29T03:35:11.940Z,-2.12
2022-11-29T03:38:21.829Z,-2.08
2022-11-29T03:41:08.193Z,-2.03
2022-11-29T03:43:54.641Z,-2.00
2022-11-29T03:46:29.705Z,-1.98
2022-11-29T03:49:16.922Z,-1.93
2022-11-29T03:51:48.143Z,-1.88
2022-11-29T03:54:28.883Z,-1.88
2022-11-29T03:56:57.422Z,-1.88
2022-11-29T03:59:56.314Z,-1.89
2022-11-29T04:02:36.279Z,-1.95
2022-11-29T04:05:35.053Z,-2.00
2022-11-29T04:08:18.678Z,-2.03
2022-11-29T04:11:23.277Z,-2.11
2022-11-29T04:14:22.951Z,-2.19
2022-11-29T04:17:09.816Z,-2.19
2022-11-29T04:19:59.695Z,-2.18
2022-11-29T04:22:35.298Z,-2.17
2022-11-29T04:25:41.157Z,-2.18
2022-11-29T04:28:28.057Z,-2.22
2022-11-29T04:31:14.515Z,-2.25
2022-11-29T04:33:54.445Z,-2.30
2022-11-29T04:36:28.423Z,-2.36
2022-11-29T04:39:02.547Z,-2.44
2022-11-29T04:41:49.743Z,-2.50
2022-11-29T04:44:44.517Z,-2.56
2022-11-29T04:47:38.940Z,-2.63
2022-11-29T04:50:21.201Z,-2.73
2022-11-29T04:53:01.531Z,-2.82
2022-11-29T04:55:45.992Z,-2.92
2022-11-29T04:58:28.535Z,-3.00
2022-11-29T05:01:05.145Z,-3.07
2022-11-29T05:03:45.762Z,-3.13
2022-11-29T05:06:21.306Z,-3.20
2022-11-29T05:08:49.321Z,-3.28
2022-11-29T05:11:37.411Z,-3.34
2022-11-29T05:14:27.462Z,-3.39
2022-11-29T05:17:32.294Z,-3.41
2022-11-29T05:20:36.057Z,-3.42
2022-11-29T05:23:35.395Z,-3.40
2022-11-29T05:26:16.629Z,-3.37
2022-11-29T05:28:50.949Z,-3.33
2022-11-29T05:31:19.267Z,-3.35
2022-11-29T05:33:47.608Z,-3.35
2022-11-29T05:36:48.984Z,-3.37
2022-11-29T05:39:33.657Z,-3.37
2022-11-29T05:42:23.957Z,-3.37
2022-11-29T05:45:04.302Z,-3.33
2022-11-29T05:47:52.439Z,-3.31
2022-11-29T05:50:42.786Z,-3.27
2022-11-29T05:54:08.511Z,-3.22
2022-11-29T05:57:07.593Z,-3.21
2022-11-29T05:59:38.935Z,-3.28
2022-11-29T06:02:33.867Z,-3.34
2022-11-29T06:05:13.796Z,-3.36
2022-11-29T06:08:16.000Z,-3.37
2022-11-29T06:11:13.961Z,-3.34
2022-11-29T06:14:08.764Z,-3.25
2022-11-29T06:16:46.019Z,-3.14
2022-11-29T06:19:20.489Z,-3.06
2022-11-29T06:22:07.675Z,-3.00
2022-11-29T06:24:45.659Z,-2.89
2022-11-29T06:27:43.121Z,-2.79
2022-11-29T06:30:15.304Z,-2.73
2022-11-29T06:32:55.814Z,-2.67
2022-11-29T06:35:41.187Z,-2.58
2022-11-29T06:38:21.662Z,-2.46
2022-11-29T06:40:51.585Z,-2.32
2022-11-29T06:43:20.316Z,-2.20
2022-11-29T06:46:05.594Z,-2.07
2022-11-29T06:48:38.707Z,-1.92
2022-11-29T06:51:25.092Z,-1.81
2022-11-29T06:53:53.418Z,-1.70
2022-11-29T06:56:33.650Z,-1.59
2022-11-29T06:59:17.839Z,-1.51
2022-11-29T07:01:58.754Z,-1.50
2022-11-29T07:04:38.932Z,-1.53
2022-11-29T07:07:20.096Z,-1.52
2022-11-29T07:09:53.357Z,-1.55
2022-11-29T07:12:22.297Z,-1.57
2022-11-29T07:14:50.863Z,-1.54
2022-11-29T07:17:25.283Z,-1.53
2022-11-29T07:20:15.500Z,-1.54
2022-11-29T07:22:46.836Z,-1.60
2022-11-29T07:25:33.719Z,-1.64
2022-11-29T07:28:23.955Z,-1.64
2022-11-29T07:31:20.053Z,-1.58
2022-11-29T07:33:54.914Z,-1.50
2022-11-29T07:36:54.710Z,-1.43
2022-11-29T07:40:05.029Z,-1.36
2022-11-29T07:43:10.605Z,-1.27
2022-11-29T07:45:40.478Z,-1.18
2022-11-29T07:48:12.432Z,-1.09
2022-11-29T07:50:41.425Z,-1.03
2022-11-29T07:53:21.490Z,-1.02
2022-11-29T07:55:51.029Z,-1.08
2022-11-29T07:58:19.851Z,-1.14
2022-11-29T08:00:48.565Z,-1.18
2022-11-29T08:03:17.415Z,-1.18
2022-11-29T08:05:47.633Z,-1.17
2022-11-29T08:08:16.531Z,-1.19
2022-11-29T08:10:45.092Z,-1.26
2022-11-29T08:13:14.243Z,-1.25
2022-11-29T08:15:46.850Z,-1.23
2022-11-29T08:18:16.109Z,-1.19
2022-11-29T08:20:46.576Z,-1.17
2022-11-29T08:23:16.873Z,-1.04
2022-11-29T08:25:46.447Z,-0.92
2022-11-29T08:28:14.895Z,-0.87
2022-11-29T08:30:43.272Z,-0.82
2022-11-29T08:33:11.566Z,-0.70
2022-11-29T08:35:40.159Z,-0.57
2022-11-29T08:38:08.851Z,-0.42
2022-11-29T08:40:37.231Z,-0.34
2022-11-29T08:43:05.693Z,-0.37
2022-11-29T08:45:34.128Z,-0.35
2022-11-29T08:48:02.763Z,-0.40
2022-11-29T08:50:31.384Z,-0.44
2022-11-29T08:53:18.351Z,-0.45
2022-11-29T08:55:47.062Z,-0.46
2022-11-29T08:58:16.546Z,-0.46
2022-11-29T09:00:48.875Z,-0.45
2022-11-29T09:03:36.467Z,-0.47
2022-11-29T09:06:12.493Z,-0.46
2022-11-29T09:08:45.926Z,-0.39
2022-11-29T09:11:17.262Z,-0.20
2022-11-29T09:13:49.155Z,-0.06
2022-11-29T09:16:20.809Z,-0.02
2022-11-29T09:18:52.120Z,0.13
2022-11-29T09:21:20.863Z,0.35
2022-11-29T09:23:49.197Z,0.51
2022-11-29T09:26:19.667Z,0.60
2022-11-29T09:28:48.309Z,0.72
2022-11-29T09:31:17.805Z,0.82
2022-11-29T09:33:47.416Z,0.93
2022-11-29T09:36:16.530Z,1.01
2022-11-29T09:38:45.070Z,1.05
2022-11-29T09:41:16.563Z,0.99
2022-11-29T09:44:19.198Z,0.94
2022-11-29T09:47:25.915Z,0.86
2022-11-29T09:50:31.488Z,0.80
2022-11-29T09:53:35.498Z,0.83
2022-11-29T09:56:22.352Z,0.79
2022-11-29T09:58:59.083Z,0.77
2022-11-29T10:01:32.664Z,0.80
2022-11-29T10:04:05.368Z,0.89
2022-11-29T10:06:43.567Z,1.00
2022-11-29T10:09:30.867Z,1.13
2022-11-29T10:12:17.193Z,1.30
2022-11-29T10:15:02.450Z,1.40
2022-11-29T10:17:42.006Z,1.48
2022-11-29T10:20:17.293Z,1.59
2022-11-29T10:22:55.556Z,1.69
2022-11-29T10:25:48.263Z,1.79
2022-11-29T10:28:21.408Z,1.90
2022-11-29T10:30:54.441Z,2.02
2022-11-29T10:33:30.276Z,2.15
2022-11-29T10:36:04.622Z,2.28
2022-11-29T10:38:33.268Z,2.40
2022-11-29T10:41:09.618Z,2.52
2022-11-29T10:43:38.540Z,2.64
2022-11-29T10:46:16.513Z,2.71
2022-11-29T10:48:45.153Z,2.79
2022-11-29T10:51:18.297Z,2.91
2022-11-29T10:53:49.692Z,3.01
2022-11-29T10:56:30.521Z,3.14
2022-11-29T10:59:08.160Z,3.27
2022-11-29T11:01:41.188Z,3.38
2022-11-29T11:04:25.610Z,3.51
2022-11-29T11:06:57.132Z,3.60
2022-11-29T11:09:32.760Z,3.71
2022-11-29T11:12:27.235Z,3.86
2022-11-29T11:15:17.007Z,4.01
2022-11-29T11:18:00.901Z,4.18
2022-11-29T11:20:31.697Z,4.34
2022-11-29T11:23:06.477Z,4.45
2022-11-29T11:25:39.861Z,4.51
2022-11-29T11:28:51.676Z,4.64
2022-11-29T11:31:34.770Z,4.71
2022-11-29T11:34:27.031Z,4.81
2022-11-29T11:37:16.598Z,4.89
2022-11-29T11:39:47.493Z,5.01
2022-11-29T11:42:38.669Z,5.12
2022-11-29T11:45:31.455Z,5.28
2022-11-29T11:48:03.706Z,5.36
2022-11-29T11:50:37.925Z,5.42
2022-11-29T11:53:28.649Z,5.48
2022-11-29T11:56:03.508Z,5.56
2022-11-29T11:58:33.371Z,5.59
2022-11-29T12:01:25.338Z,5.60
2022-11-29T12:04:19.427Z,5.58
2022-11-29T12:06:54.131Z,5.58
2022-11-29T12:09:49.369Z,5.56
2022-11-29T12:12:33.062Z,5.54
2022-11-29T12:15:07.289Z,5.53
2022-11-29T12:17:44.622Z,5.54
2022-11-29T12:20:31.359Z,5.55
2022-11-29T12:23:11.934Z,5.56
2022-11-29T12:25:48.528Z,5.56
2022-11-29T12:28:20.823Z,5.57
2022-11-29T12:30:59.376Z,5.58
2022-11-29T12:33:42.393Z,5.55
2022-11-29T12:36:24.790Z,5.51
2022-11-29T12:39:34.584Z,5.50
2022-11-29T12:42:05.873Z,5.49
2022-11-29T12:45:03.584Z,5.48
2022-11-29T12:48:16.698Z,5.49
2022-11-29T12:51:12.776Z,5.48
2022-11-29T12:53:46.906Z,5.48
2022-11-29T12:56:32.366Z,5.48
2022-11-29T12:59:39.686Z,5.46
2022-11-29T13:02:35.040Z,5.43
2022-11-29T13:05:19.158Z,5.45
2022-11-29T13:08:10.775Z,5.45
2022-11-29T13:10:54.770Z,5.43
2022-11-29T13:13:52.378Z,5.40
2022-11-29T13:16:36.433Z,5.39
2022-11-29T13:19:21.487Z,5.38
2022-11-29T13:21:59.540Z,5.35
2022-11-29T13:25:19.333Z,5.33
2022-11-29T13:28:05.571Z,5.34
2022-11-29T13:30:35.946Z,5.33
2022-11-29T13:33:25.256Z,5.31
2022-11-29T13:36:16.215Z,5.29
2022-11-29T13:38:57.005Z,5.30
2022-11-29T13:41:43.608Z,5.32
2022-11-29T13:44:20.602Z,5.30
2022-11-29T13:47:07.505Z,5.26
2022-11-29T13:49:54.973Z,5.20
2022-11-29T13:52:48.955Z,5.14
2022-11-29T13:55:29.740Z,5.10
2022-11-29T13:58:30.926Z,5.05
2022-11-29T14:01:03.268Z,5.03
2022-11-29T14:04:03.149Z,5.01
2022-11-29T14:06:33.526Z,5.00
2022-11-29T14:09:19.661Z,4.99
2022-11-29T14:11:59.150Z,4.97
2022-11-29T14:14:51.873Z,4.96
2022-11-29T14:17:44.736Z,4.94
2022-11-29T14:20:25.349Z,4.91
2022-11-29T14:23:02.771Z,4.86
2022-11-29T14:28:21.936Z,4.70
2022-11-29T14:31:03.039Z,4.61
2022-11-29T14:33:47.100Z,4.53
2022-11-29T14:36:15.488Z,4.43
2022-11-29T14:38:53.393Z,4.33
2022-11-29T14:41:33.311Z,4.25
2022-11-29T14:44:28.361Z,4.18
2022-11-29T14:47:38.506Z,4.09
2022-11-29T14:50:10.985Z,4.01
2022-11-29T14:52:50.228Z,3.95
2022-11-29T14:55:24.799Z,3.90
2022-11-29T14:58:04.109Z,3.86
2022-11-29T15:00:48.086Z,3.81
2022-11-29T15:03:16.756Z,3.71
2022-11-29T15:05:51.104Z,3.59
2022-11-29T15:08:32.479Z,3.47
2022-11-29T15:11:19.701Z,3.34
2022-11-29T15:14:16.444Z,3.20
2022-11-29T15:16:45.222Z,3.07
2022-11-29T15:19:41.482Z,2.96
2022-11-29T15:22:19.032Z,2.85
2022-11-29T15:25:06.019Z,2.77
2022-11-29T15:27:39.856Z,2.69
2022-11-29T15:30:28.019Z,2.62
2022-11-29T15:32:58.707Z,2.55
2022-11-29T15:35:28.018Z,2.49
2022-11-29T15:37:57.070Z,2.44
2022-11-29T15:40:37.539Z,2.41
2022-11-29T15:43:19.726Z,2.39
2022-11-29T15:45:54.944Z,2.35
2022-11-29T15:48:28.893Z,2.32
2022-11-29T15:51:31.168Z,2.27
2022-11-29T15:54:13.778Z,2.21
2022-11-29T15:56:56.884Z,2.15
2022-11-29T15:59:47.557Z,2.08
2022-11-29T16:02:23.566Z,2.01
2022-11-29T16:05:14.088Z,1.92
2022-11-29T16:07:44.440Z,1.82
2022-11-29T16:10:17.175Z,1.73
2022-11-29T16:13:35.466Z,1.67
2022-11-29T16:16:21.299Z,1.62
2022-11-29T16:18:51.398Z,1.58
2022-11-29T16:21:31.196Z,1.54
2022-11-29T16:24:13.982Z,1.50
2022-11-29T16:26:46.231Z,1.45
2022-11-29T16:29:24.770Z,1.40
2022-11-29T16:31:54.113Z,1.34
2022-11-29T16:34:34.064Z,1.30
2022-11-29T16:37:06.689Z,1.25
2022-11-29T16:39:38.628Z,1.18
2022-11-29T16:42:07.707Z,1.14
2022-11-29T16:44:42.783Z,1.13
2022-11-29T16:47:22.450Z,1.15
2022-11-29T16:50:16.674Z,1.19
2022-11-29T16:52:45.714Z,1.18
2022-11-29T16:55:16.997Z,1.19
2022-11-29T16:57:46.834Z,1.24
2022-11-29T17:00:31.195Z,1.24
2022-11-29T17:03:00.087Z,1.26
2022-11-29T17:05:28.864Z,1.30
2022-11-29T17:07:58.665Z,1.31
2022-11-29T17:10:27.640Z,1.30
2022-11-29T17:12:56.020Z,1.29
2022-11-29T17:15:24.802Z,1.25
2022-11-29T17:17:53.768Z,1.25
2022-11-29T17:20:21.964Z,1.19
2022-11-29T17:22:50.243Z,1.14
2022-11-29T17:25:18.498Z,1.06
2022-11-29T17:27:46.922Z,0.94
2022-11-29T17:30:15.706Z,0.87
2022-11-29T17:32:43.885Z,0.78
2022-11-29T17:35:12.272Z,0.69
2022-11-29T17:37:40.505Z,0.59
2022-11-29T17:40:09.108Z,0.52
2022-11-29T17:42:37.485Z,0.47
2022-11-29T17:45:06.246Z,0.39
2022-11-29T17:47:34.237Z,0.33
2022-11-29T17:50:02.608Z,0.28
2022-11-29T17:52:30.928Z,0.20
2022-11-29T17:54:59.499Z,0.13
2022-11-29T17:57:27.570Z,0.11
2022-11-29T17:59:55.875Z,0.08
2022-11-29T18:02:24.434Z,0.06
2022-11-29T18:04:52.758Z,0.04
2022-11-29T18:07:21.055Z,0.05
2022-11-29T18:09:49.471Z,0.06
2022-11-29T18:12:18.165Z,0.08
2022-11-29T18:14:46.328Z,0.10
2022-11-29T18:17:14.568Z,0.14
2022-11-29T18:19:43.122Z,0.19
2022-11-29T18:22:11.727Z,0.20
2022-11-29T18:24:43.610Z,0.19
2022-11-29T18:27:12.425Z,0.19
2022-11-29T18:29:40.791Z,0.19
2022-11-29T18:32:08.835Z,0.17
2022-11-29T18:34:36.943Z,0.14
2022-11-29T18:37:05.411Z,0.14
2022-11-29T18:39:33.623Z,0.14
2022-11-29T18:42:01.914Z,0.14
2022-11-29T18:44:30.474Z,0.10
2022-11-29T18:46:58.547Z,0.06
2022-11-29T18:49:26.683Z,0.03
2022-11-29T18:51:55.095Z,0.01
2022-11-29T18:54:24.671Z,-0.02
2022-11-29T18:56:53.032Z,-0.03
2022-11-29T18:59:23.205Z,-0.03
2022-11-29T19:01:51.888Z,-0.01
2022-11-29T19:04:21.194Z,0.03
2022-11-29T19:06:49.998Z,0.05
2022-11-29T19:09:21.586Z,0.06
2022-11-29T19:11:51.292Z,0.06
2022-11-29T19:14:20.264Z,0.06
2022-11-29T19:16:50.001Z,0.08
2022-11-29T19:19:21.129Z,0.09
2022-11-29T19:21:49.532Z,0.10
2022-11-29T19:24:18.652Z,0.12
2022-11-29T19:26:49.854Z,0.14
2022-11-29T19:29:18.202Z,0.15
2022-11-29T19:31:46.571Z,0.13
2022-11-29T19:34:14.695Z,0.10
2022-11-29T19:36:44.152Z,0.06
2022-11-29T19:39:15.755Z,-0.00
2022-11-29T19:41:46.842Z,-0.05
2022-11-29T19:44:15.525Z,-0.10
2022-11-29T19:46:47.194Z,-0.15
2022-11-29T19:49:15.289Z,-0.20
2022-11-29T19:51:43.799Z,-0.24
2022-11-29T19:54:13.654Z,-0.27
2022-11-29T19:56:42.285Z,-0.31
2022-11-29T19:59:10.373Z,-0.34
2022-11-29T20:01:42.913Z,-0.37
2022-11-29T20:04:13.761Z,-0.40
2022-11-29T20:06:42.152Z,-0.41
2022-11-29T20:09:11.401Z,-0.40
2022-11-29T20:11:39.679Z,-0.35
2022-11-29T20:14:08.413Z,-0.33
2022-11-29T20:16:39.099Z,-0.31
2022-11-29T20:19:13.871Z,-0.30
2022-11-29T20:21:46.031Z,-0.29
2022-11-29T20:24:15.837Z,-0.27
2022-11-29T20:26:47.001Z,-0.27
2022-11-29T20:29:16.118Z,-0.28
2022-11-29T20:31:50.026Z,-0.30
2022-11-29T20:34:20.272Z,-0.33
2022-11-29T20:37:22.730Z,-0.38
2022-11-29T20:40:00.233Z,-0.44
2022-11-29T20:42:52.772Z,-0.50
2022-11-29T20:45:21.492Z,-0.56
2022-11-29T20:48:02.439Z,-0.61
2022-11-29T20:50:32.243Z,-0.68
2022-11-29T20:53:33.648Z,-0.73
2022-11-29T20:56:02.910Z,-0.78
2022-11-29T20:58:31.199Z,-0.82
2022-11-29T21:01:00.252Z,-0.87
2022-11-29T21:03:29.723Z,-0.91
2022-11-29T21:06:01.883Z,-0.95
2022-11-29T21:08:30.256Z,-0.99
2022-11-29T21:11:07.536Z,-1.02
2022-11-29T21:13:36.375Z,-1.05
2022-11-29T21:16:04.840Z,-1.07
2022-11-29T21:18:34.314Z,-1.05
2022-11-29T21:21:25.080Z,-1.02
2022-11-29T21:24:14.562Z,-0.99
2022-11-29T21:26:50.752Z,-0.94
2022-11-29T21:29:21.802Z,-0.89
2022-11-29T21:31:52.980Z,-0.85
2022-11-29T21:34:22.257Z,-0.79
2022-11-29T21:36:56.567Z,-0.77
2022-11-29T21:39:31.018Z,-0.73
2022-11-29T21:41:59.151Z,-0.70
2022-11-29T21:44:27.198Z,-0.68
2022-11-29T21:46:55.142Z,-0.68
2022-11-29T21:49:23.544Z,-0.69
2022-11-29T21:51:51.544Z,-0.75
2022-11-29T21:54:19.642Z,-0.83
2022-11-29T21:56:47.861Z,-0.90
2022-11-29T21:59:15.908Z,-0.97
2022-11-29T22:01:44.023Z,-1.06
2022-11-29T22:04:12.254Z,-1.14
2022-11-29T22:06:40.324Z,-1.20
2022-11-29T22:09:08.552Z,-1.26
2022-11-29T22:11:36.938Z,-1.30
2022-11-29T22:14:15.395Z,-1.36
2022-11-29T22:16:54.614Z,-1.41
2022-11-29T22:19:25.295Z,-1.45
2022-11-29T22:21:58.928Z,-1.50
2022-11-29T22:24:29.245Z,-1.53
2022-11-29T22:26:57.618Z,-1.56
2022-11-29T22:29:26.265Z,-1.57
2022-11-29T22:31:56.529Z,-1.58
2022-11-29T22:34:25.415Z,-1.60
2022-11-29T22:36:53.902Z,-1.58
2022-11-29T22:39:24.263Z,-1.52
2022-11-29T22:41:54.728Z,-1.45
2022-11-29T22:44:24.022Z,-1.37
2022-11-29T22:46:52.674Z,-1.30
2022-11-29T22:49:20.653Z,-1.22
2022-11-29T22:51:48.738Z,-1.18
2022-11-29T22:54:17.546Z,-1.14
2022-11-29T22:56:45.915Z,-1.12
2022-11-29T22:59:14.741Z,-1.12
2022-11-29T23:01:43.258Z,-1.14
2022-11-29T23:04:12.396Z,-1.17
2022-11-29T23:06:43.522Z,-1.19
2022-11-29T23:09:19.074Z,-1.20
2022-11-29T23:11:52.263Z,-1.22
2022-11-29T23:14:22.328Z,-1.26
2022-11-29T23:16:50.933Z,-1.31
2022-11-29T23:19:19.659Z,-1.37
2022-11-29T23:21:48.079Z,-1.43
2022-11-29T23:24:16.091Z,-1.51
2022-11-29T23:26:47.451Z,-1.57
2022-11-29T23:29:18.226Z,-1.63
2022-11-29T23:31:47.008Z,-1.68
2022-11-29T23:34:15.545Z,-1.74
2022-11-29T23:36:47.015Z,-1.79
2022-11-29T23:39:19.418Z,-1.83
2022-11-29T23:41:47.448Z,-1.86
2022-11-29T23:44:15.543Z,-1.89
2022-11-29T23:46:43.604Z,-1.89
2022-11-29T23:49:11.644Z,-1.89
2022-11-29T23:51:39.558Z,-1.88
2022-11-29T23:54:07.657Z,-1.85
2022-11-29T23:56:35.768Z,-1.82
2022-11-29T23:59:04.244Z,-1.78
